Terminal Aerodrome Forecast
Issued by NWS

Home | Current Version | Previous Version | Text Only | Print | Product List | Glossary On
Versions: 1 2 3 4 5 6 7 8 9 10 11 12 13 14 15 16 17 18 19 20 21
000
FTUS46 KLOX 051100
TAFSBP
TAF
KSBP 051123Z 0512/0612 VRB03KT P6SM OVC015
     FM051600 31006KT P6SM OVC020
     FM051800 30010KT P6SM SCT020
     FM052000 31014G22KT P6SM SCT025
     FM060200 31010KT P6SM SCT020
     FM060400 31008KT P6SM BKN015=

USA.gov is the U.S. government's official web portal to all federal, state and local government web resources and services.